sensor_id;sensor_type;location;lat;lon;timestamp;pressure;altitude;pressure_sealevel;temperature;humidity
54666;BME280;40566;50.006;36.180;2023-05-23T00:00:43;99654.16;;;16.88;63.25
54666;BME280;40566;50.006;36.180;2023-05-23T00:05:44;99641.28;;;16.85;63.43
54666;BME280;40566;50.006;36.180;2023-05-23T00:10:47;99648.69;;;16.93;62.86
54666;BME280;40566;50.006;36.180;2023-05-23T00:15:47;99650.34;;;16.94;63.13
54666;BME280;40566;50.006;36.180;2023-05-23T00:20:48;99650.28;;;16.95;63.09
54666;BME280;40566;50.006;36.180;2023-05-23T00:25:51;99642.59;;;16.92;63.09
54666;BME280;40566;50.006;36.180;2023-05-23T00:30:52;99638.31;;;16.91;63.05
54666;BME280;40566;50.006;36.180;2023-05-23T00:35:53;99640.78;;;16.94;63.06
54666;BME280;40566;50.006;36.180;2023-05-23T00:40:54;99643.19;;;16.97;62.91
54666;BME280;40566;50.006;36.180;2023-05-23T00:45:54;99639.91;;;16.94;62.93
54666;BME280;40566;50.006;36.180;2023-05-23T00:50:55;99638.16;;;16.94;63.07
54666;BME280;40566;50.006;36.180;2023-05-23T00:55:56;99635.56;;;16.94;62.94
54666;BME280;40566;50.006;36.180;2023-05-23T01:00:57;99640.66;;;16.96;63.01
54666;BME280;40566;50.006;36.180;2023-05-23T01:05:59;99636.31;;;16.96;62.62
54666;BME280;40566;50.006;36.180;2023-05-23T01:11:04;99624.06;;;16.97;62.38
54666;BME280;40566;50.006;36.180;2023-05-23T01:16:12;99619.88;;;16.94;62.91
54666;BME280;40566;50.006;36.180;2023-05-23T01:21:17;99627.13;;;16.89;62.63
54666;BME280;40566;50.006;36.180;2023-05-23T01:31:28;99637.06;;;16.82;62.72
54666;BME280;40566;50.006;36.180;2023-05-23T01:36:32;99622.22;;;16.83;62.65
54666;BME280;40566;50.006;36.180;2023-05-23T01:41:34;99638.22;;;16.77;63.40
54666;BME280;40566;50.006;36.180;2023-05-23T01:46:36;99633.91;;;16.76;63.59
54666;BME280;40566;50.006;36.180;2023-05-23T01:51:41;99634.41;;;16.66;64.44
54666;BME280;40566;50.006;36.180;2023-05-23T01:56:42;99626.84;;;16.62;64.58
54666;BME280;40566;50.006;36.180;2023-05-23T02:01:42;99631.47;;;16.57;65.01
54666;BME280;40566;50.006;36.180;2023-05-23T02:06:43;99637.69;;;16.54;64.89
54666;BME280;40566;50.006;36.180;2023-05-23T02:11:44;99629.94;;;16.53;65.55
54666;BME280;40566;50.006;36.180;2023-05-23T02:16:44;99639.63;;;16.51;65.42
54666;BME280;40566;50.006;36.180;2023-05-23T02:21:45;99643.16;;;16.50;65.78
54666;BME280;40566;50.006;36.180;2023-05-23T02:26:45;99636.16;;;16.50;65.87
54666;BME280;40566;50.006;36.180;2023-05-23T02:31:46;99631.88;;;16.49;65.96
54666;BME280;40566;50.006;36.180;2023-05-23T02:36:47;99628.34;;;16.50;65.68
54666;BME280;40566;50.006;36.180;2023-05-23T02:41:47;99636.09;;;16.52;66.04
54666;BME280;40566;50.006;36.180;2023-05-23T02:46:48;99630.72;;;16.55;65.62
54666;BME280;40566;50.006;36.180;2023-05-23T02:51:48;99618.41;;;16.57;65.52
54666;BME280;40566;50.006;36.180;2023-05-23T02:56:49;99620.84;;;16.60;65.64
54666;BME280;40566;50.006;36.180;2023-05-23T03:01:51;99624.28;;;16.60;65.25
54666;BME280;40566;50.006;36.180;2023-05-23T03:06:52;99612.00;;;16.62;65.43
54666;BME280;40566;50.006;36.180;2023-05-23T03:11:56;99625.91;;;16.63;65.83
54666;BME280;40566;50.006;36.180;2023-05-23T03:16:56;99631.78;;;16.66;65.86
54666;BME280;40566;50.006;36.180;2023-05-23T03:21:57;99632.72;;;16.65;66.57
54666;BME280;40566;50.006;36.180;2023-05-23T03:26:57;99629.38;;;16.63;66.91
54666;BME280;40566;50.006;36.180;2023-05-23T03:31:58;99633.66;;;16.64;67.15
54666;BME280;40566;50.006;36.180;2023-05-23T03:36:59;99637.97;;;16.65;67.24
54666;BME280;40566;50.006;36.180;2023-05-23T03:41:59;99634.31;;;16.68;67.46
54666;BME280;40566;50.006;36.180;2023-05-23T03:47:00;99634.50;;;16.65;67.64
54666;BME280;40566;50.006;36.180;2023-05-23T03:52:00;99641.66;;;16.61;68.53
54666;BME280;40566;50.006;36.180;2023-05-23T03:57:01;99625.25;;;16.59;68.80
54666;BME280;40566;50.006;36.180;2023-05-23T04:02:02;99630.47;;;16.59;69.44
54666;BME280;40566;50.006;36.180;2023-05-23T04:07:02;99623.47;;;16.60;69.72
54666;BME280;40566;50.006;36.180;2023-05-23T04:12:04;99623.19;;;16.64;69.92
54666;BME280;40566;50.006;36.180;2023-05-23T04:17:08;99629.78;;;16.72;69.85
54666;BME280;40566;50.006;36.180;2023-05-23T04:22:09;99617.97;;;16.80;70.37
54666;BME280;40566;50.006;36.180;2023-05-23T04:27:09;99634.19;;;16.87;70.37
54666;BME280;40566;50.006;36.180;2023-05-23T04:32:10;99622.56;;;16.93;70.35
54666;BME280;40566;50.006;36.180;2023-05-23T04:37:10;99635.34;;;16.97;70.34
54666;BME280;40566;50.006;36.180;2023-05-23T04:42:12;99624.75;;;17.00;70.46
54666;BME280;40566;50.006;36.180;2023-05-23T04:47:12;99638.38;;;17.05;70.70
54666;BME280;40566;50.006;36.180;2023-05-23T04:52:13;99625.06;;;17.10;70.14
54666;BME280;40566;50.006;36.180;2023-05-23T04:57:14;99634.31;;;17.16;70.32
54666;BME280;40566;50.006;36.180;2023-05-23T05:02:15;99630.50;;;17.21;70.65
54666;BME280;40566;50.006;36.180;2023-05-23T05:07:15;99636.06;;;17.31;70.71
54666;BME280;40566;50.006;36.180;2023-05-23T05:12:16;99630.31;;;17.40;70.58
54666;BME280;40566;50.006;36.180;2023-05-23T05:17:16;99633.31;;;17.49;70.68
54666;BME280;40566;50.006;36.180;2023-05-23T05:22:18;99637.63;;;17.50;71.08
54666;BME280;40566;50.006;36.180;2023-05-23T05:27:19;99636.88;;;17.48;71.05
54666;BME280;40566;50.006;36.180;2023-05-23T05:32:19;99639.50;;;17.48;71.13
54666;BME280;40566;50.006;36.180;2023-05-23T05:37:20;99642.66;;;17.53;71.12
54666;BME280;40566;50.006;36.180;2023-05-23T05:42:21;99642.50;;;17.56;71.35
54666;BME280;40566;50.006;36.180;2023-05-23T05:47:22;99650.91;;;17.61;70.83
54666;BME280;40566;50.006;36.180;2023-05-23T05:52:22;99652.50;;;17.63;71.05
54666;BME280;40566;50.006;36.180;2023-05-23T05:57:23;99651.09;;;17.58;70.91
54666;BME280;40566;50.006;36.180;2023-05-23T06:02:24;99655.81;;;17.51;71.13
54666;BME280;40566;50.006;36.180;2023-05-23T06:07:24;99658.53;;;17.50;70.96
54666;BME280;40566;50.006;36.180;2023-05-23T06:12:25;99650.88;;;17.47;70.96
54666;BME280;40566;50.006;36.180;2023-05-23T06:17:26;99644.34;;;17.54;70.94
54666;BME280;40566;50.006;36.180;2023-05-23T06:22:27;99656.88;;;17.63;71.28
54666;BME280;40566;50.006;36.180;2023-05-23T06:27:27;99653.91;;;17.69;71.05
54666;BME280;40566;50.006;36.180;2023-05-23T06:32:28;99639.16;;;17.68;70.64
54666;BME280;40566;50.006;36.180;2023-05-23T06:37:29;99639.81;;;17.72;70.50
54666;BME280;40566;50.006;36.180;2023-05-23T06:42:29;99638.34;;;17.82;70.21
54666;BME280;40566;50.006;36.180;2023-05-23T06:47:30;99639.50;;;17.92;69.96
54666;BME280;40566;50.006;36.180;2023-05-23T06:52:30;99645.03;;;18.02;70.05
54666;BME280;40566;50.006;36.180;2023-05-23T06:57:31;99651.28;;;18.14;70.04
54666;BME280;40566;50.006;36.180;2023-05-23T07:02:31;99646.34;;;18.23;69.96
54666;BME280;40566;50.006;36.180;2023-05-23T07:07:32;99648.50;;;18.31;69.52
54666;BME280;40566;50.006;36.180;2023-05-23T07:12:33;99643.34;;;18.30;69.93
54666;BME280;40566;50.006;36.180;2023-05-23T07:17:33;99638.66;;;18.35;69.75
54666;BME280;40566;50.006;36.180;2023-05-23T07:22:35;99637.72;;;18.36;69.17
54666;BME280;40566;50.006;36.180;2023-05-23T07:27:36;99638.66;;;18.35;69.49
54666;BME280;40566;50.006;36.180;2023-05-23T07:32:36;99636.84;;;18.50;69.20
54666;BME280;40566;50.006;36.180;2023-05-23T07:37:37;99636.94;;;18.48;69.18
54666;BME280;40566;50.006;36.180;2023-05-23T07:42:37;99635.19;;;18.49;69.90
54666;BME280;40566;50.006;36.180;2023-05-23T07:47:38;99637.34;;;18.56;69.92
54666;BME280;40566;50.006;36.180;2023-05-23T07:52:39;99629.19;;;18.61;69.79
54666;BME280;40566;50.006;36.180;2023-05-23T07:57:40;99626.00;;;18.70;69.78
54666;BME280;40566;50.006;36.180;2023-05-23T08:02:41;99622.09;;;18.76;69.16
54666;BME280;40566;50.006;36.180;2023-05-23T08:07:41;99626.59;;;18.74;69.39
54666;BME280;40566;50.006;36.180;2023-05-23T08:12:42;99618.41;;;18.80;69.33
54666;BME280;40566;50.006;36.180;2023-05-23T08:17:42;99605.00;;;18.85;68.45
54666;BME280;40566;50.006;36.180;2023-05-23T08:22:43;99612.03;;;18.84;68.39
54666;BME280;40566;50.006;36.180;2023-05-23T08:27:44;99615.28;;;18.88;68.56
54666;BME280;40566;50.006;36.180;2023-05-23T08:32:44;99612.66;;;18.88;68.47
54666;BME280;40566;50.006;36.180;2023-05-23T08:37:45;99610.91;;;18.88;68.52
54666;BME280;40566;50.006;36.180;2023-05-23T08:42:47;99613.94;;;18.95;68.70
54666;BME280;40566;50.006;36.180;2023-05-23T08:47:50;99600.66;;;18.98;68.83
54666;BME280;40566;50.006;36.180;2023-05-23T08:52:57;99608.22;;;19.02;69.18
54666;BME280;40566;50.006;36.180;2023-05-23T08:57:58;99615.44;;;18.99;69.09
54666;BME280;40566;50.006;36.180;2023-05-23T09:03:02;99604.41;;;18.94;69.17
54666;BME280;40566;50.006;36.180;2023-05-23T09:08:03;99603.88;;;18.89;68.95
54666;BME280;40566;50.006;36.180;2023-05-23T09:13:04;99606.06;;;18.82;69.36
54666;BME280;40566;50.006;36.180;2023-05-23T09:18:04;99611.53;;;18.77;69.40
54666;BME280;40566;50.006;36.180;2023-05-23T09:23:05;99597.59;;;18.77;69.28
54666;BME280;40566;50.006;36.180;2023-05-23T09:28:06;99601.72;;;18.81;69.27
54666;BME280;40566;50.006;36.180;2023-05-23T09:33:06;99593.97;;;18.79;69.08
54666;BME280;40566;50.006;36.180;2023-05-23T09:38:07;99599.66;;;18.86;69.50
54666;BME280;40566;50.006;36.180;2023-05-23T09:43:08;99607.47;;;19.00;69.56
54666;BME280;40566;50.006;36.180;2023-05-23T09:48:11;99593.06;;;19.20;69.02
54666;BME280;40566;50.006;36.180;2023-05-23T09:53:13;99606.31;;;19.32;69.19
54666;BME280;40566;50.006;36.180;2023-05-23T09:58:14;99593.59;;;19.38;68.89
54666;BME280;40566;50.006;36.180;2023-05-23T10:03:18;99593.84;;;19.35;69.26
54666;BME280;40566;50.006;36.180;2023-05-23T10:13:32;99585.31;;;19.32;69.66
54666;BME280;40566;50.006;36.180;2023-05-23T10:18:39;99589.84;;;19.30;70.07
54666;BME280;40566;50.006;36.180;2023-05-23T10:23:44;99594.44;;;19.26;70.29
54666;BME280;40566;50.006;36.180;2023-05-23T10:28:46;99585.41;;;19.30;70.66
54666;BME280;40566;50.006;36.180;2023-05-23T10:33:57;99587.00;;;19.33;70.35
54666;BME280;40566;50.006;36.180;2023-05-23T10:39:18;99585.31;;;19.32;70.40
54666;BME280;40566;50.006;36.180;2023-05-23T10:44:28;99589.19;;;19.26;70.27
54666;BME280;40566;50.006;36.180;2023-05-23T10:49:45;99583.41;;;19.21;70.56
54666;BME280;40566;50.006;36.180;2023-05-23T10:54:49;99582.47;;;19.22;70.61
54666;BME280;40566;50.006;36.180;2023-05-23T10:59:50;99588.44;;;19.24;70.66
54666;BME280;40566;50.006;36.180;2023-05-23T11:10:22;99590.13;;;19.25;70.83
54666;BME280;40566;50.006;36.180;2023-05-23T11:15:22;99586.56;;;19.26;70.56
54666;BME280;40566;50.006;36.180;2023-05-23T11:20:24;99575.75;;;19.31;70.56
54666;BME280;40566;50.006;36.180;2023-05-23T11:25:43;99557.66;;;19.53;69.74
54666;BME280;40566;50.006;36.180;2023-05-23T11:30:48;99564.78;;;19.90;68.93
54666;BME280;40566;50.006;36.180;2023-05-23T11:35:49;99550.94;;;20.00;67.67
54666;BME280;40566;50.006;36.180;2023-05-23T11:40:51;99563.13;;;19.89;68.55
54666;BME280;40566;50.006;36.180;2023-05-23T11:45:51;99566.38;;;19.79;68.75
54666;BME280;40566;50.006;36.180;2023-05-23T11:50:52;99557.25;;;19.72;68.52
54666;BME280;40566;50.006;36.180;2023-05-23T11:55:57;99549.56;;;19.56;68.82
54666;BME280;40566;50.006;36.180;2023-05-23T12:01:08;99544.84;;;19.61;68.81
54666;BME280;40566;50.006;36.180;2023-05-23T12:06:09;99553.69;;;19.73;68.24
54666;BME280;40566;50.006;36.180;2023-05-23T12:11:09;99559.97;;;19.84;68.21
54666;BME280;40566;50.006;36.180;2023-05-23T12:16:12;99547.78;;;19.95;67.74
54666;BME280;40566;50.006;36.180;2023-05-23T12:21:14;99550.50;;;20.07;67.51
54666;BME280;40566;50.006;36.180;2023-05-23T12:26:15;99554.97;;;20.17;66.92
54666;BME280;40566;50.006;36.180;2023-05-23T12:31:17;99542.28;;;20.24;66.44
54666;BME280;40566;50.006;36.180;2023-05-23T12:36:25;99536.38;;;20.20;66.63
54666;BME280;40566;50.006;36.180;2023-05-23T12:41:32;99552.50;;;20.03;66.87
54666;BME280;40566;50.006;36.180;2023-05-23T12:46:32;99556.28;;;19.86;67.28
54666;BME280;40566;50.006;36.180;2023-05-23T12:51:34;99548.38;;;19.60;67.89
54666;BME280;40566;50.006;36.180;2023-05-23T12:56:34;99552.38;;;19.40;68.68
54666;BME280;40566;50.006;36.180;2023-05-23T13:01:35;99556.56;;;19.17;69.47
54666;BME280;40566;50.006;36.180;2023-05-23T13:06:35;99563.00;;;18.99;70.09
54666;BME280;40566;50.006;36.180;2023-05-23T13:11:36;99557.75;;;18.86;70.82
54666;BME280;40566;50.006;36.180;2023-05-23T13:16:37;99560.34;;;18.86;70.84
54666;BME280;40566;50.006;36.180;2023-05-23T13:21:38;99557.56;;;18.75;71.59
54666;BME280;40566;50.006;36.180;2023-05-23T13:26:39;99553.06;;;18.77;71.80
54666;BME280;40566;50.006;36.180;2023-05-23T13:31:39;99549.50;;;18.78;72.08
54666;BME280;40566;50.006;36.180;2023-05-23T13:36:40;99550.81;;;18.85;72.30
54666;BME280;40566;50.006;36.180;2023-05-23T13:41:40;99543.28;;;18.93;72.59
54666;BME280;40566;50.006;36.180;2023-05-23T13:46:42;99539.97;;;19.04;72.41
54666;BME280;40566;50.006;36.180;2023-05-23T13:51:42;99546.91;;;19.18;71.83
54666;BME280;40566;50.006;36.180;2023-05-23T13:56:43;99539.34;;;19.39;71.43
54666;BME280;40566;50.006;36.180;2023-05-23T14:01:44;99532.22;;;19.67;70.80
54666;BME280;40566;50.006;36.180;2023-05-23T14:06:45;99535.09;;;19.89;70.40
54666;BME280;40566;50.006;36.180;2023-05-23T14:11:46;99531.06;;;20.09;69.51
54666;BME280;40566;50.006;36.180;2023-05-23T14:16:51;99526.63;;;20.23;68.93
54666;BME280;40566;50.006;36.180;2023-05-23T14:21:52;99522.72;;;20.28;68.53
54666;BME280;40566;50.006;36.180;2023-05-23T14:26:52;99524.56;;;20.39;67.95
54666;BME280;40566;50.006;36.180;2023-05-23T14:31:53;99523.38;;;20.43;67.51
54666;BME280;40566;50.006;36.180;2023-05-23T14:36:54;99523.28;;;20.45;67.28
54666;BME280;40566;50.006;36.180;2023-05-23T14:41:55;99512.66;;;20.46;66.75
54666;BME280;40566;50.006;36.180;2023-05-23T14:46:55;99515.59;;;20.41;66.98
54666;BME280;40566;50.006;36.180;2023-05-23T14:51:56;99506.25;;;20.37;67.23
54666;BME280;40566;50.006;36.180;2023-05-23T14:56:56;99509.97;;;20.35;67.08
54666;BME280;40566;50.006;36.180;2023-05-23T15:01:57;99504.91;;;20.32;66.83
54666;BME280;40566;50.006;36.180;2023-05-23T15:06:58;99509.69;;;20.27;66.26
54666;BME280;40566;50.006;36.180;2023-05-23T15:11:59;99499.81;;;20.17;66.62
54666;BME280;40566;50.006;36.180;2023-05-23T15:17:00;99499.44;;;20.11;66.54
54666;BME280;40566;50.006;36.180;2023-05-23T15:22:07;99492.19;;;20.14;66.40
54666;BME280;40566;50.006;36.180;2023-05-23T15:27:07;99490.88;;;20.20;65.80
54666;BME280;40566;50.006;36.180;2023-05-23T15:32:08;99490.47;;;20.26;65.71
54666;BME280;40566;50.006;36.180;2023-05-23T15:37:08;99486.78;;;20.29;65.56
54666;BME280;40566;50.006;36.180;2023-05-23T15:42:09;99491.75;;;20.20;65.62
54666;BME280;40566;50.006;36.180;2023-05-23T15:47:10;99494.81;;;20.14;65.89
54666;BME280;40566;50.006;36.180;2023-05-23T15:52:10;99489.03;;;20.09;65.81
54666;BME280;40566;50.006;36.180;2023-05-23T15:57:11;99487.06;;;20.00;65.93
54666;BME280;40566;50.006;36.180;2023-05-23T16:02:11;99492.00;;;19.92;66.00
54666;BME280;40566;50.006;36.180;2023-05-23T16:07:13;99500.88;;;19.78;66.30
54666;BME280;40566;50.006;36.180;2023-05-23T16:12:14;99507.56;;;19.69;66.56
54666;BME280;40566;50.006;36.180;2023-05-23T16:17:15;99493.19;;;19.62;67.03
54666;BME280;40566;50.006;36.180;2023-05-23T16:22:15;99494.69;;;19.53;67.11
54666;BME280;40566;50.006;36.180;2023-05-23T16:27:16;99493.50;;;19.45;67.37
54666;BME280;40566;50.006;36.180;2023-05-23T16:32:16;99497.72;;;19.34;67.89
54666;BME280;40566;50.006;36.180;2023-05-23T16:37:17;99500.13;;;19.25;68.39
54666;BME280;40566;50.006;36.180;2023-05-23T16:42:18;99502.31;;;19.18;68.51
54666;BME280;40566;50.006;36.180;2023-05-23T16:47:18;99500.31;;;19.09;68.73
54666;BME280;40566;50.006;36.180;2023-05-23T16:52:19;99498.31;;;18.99;69.21
54666;BME280;40566;50.006;36.180;2023-05-23T16:57:20;99502.47;;;18.89;69.35
54666;BME280;40566;50.006;36.180;2023-05-23T17:02:21;99510.84;;;18.81;70.16
54666;BME280;40566;50.006;36.180;2023-05-23T17:07:21;99506.47;;;18.68;70.63
54666;BME280;40566;50.006;36.180;2023-05-23T17:12:22;99501.94;;;18.57;70.98
54666;BME280;40566;50.006;36.180;2023-05-23T17:17:22;99511.03;;;18.51;71.14
54666;BME280;40566;50.006;36.180;2023-05-23T17:22:23;99505.56;;;18.41;71.58
54666;BME280;40566;50.006;36.180;2023-05-23T17:27:23;99504.47;;;18.31;71.77
54666;BME280;40566;50.006;36.180;2023-05-23T17:32:26;99516.34;;;18.22;72.09
54666;BME280;40566;50.006;36.180;2023-05-23T17:37:27;99525.94;;;18.09;72.01
54666;BME280;40566;50.006;36.180;2023-05-23T17:42:27;99517.06;;;17.97;72.23
54666;BME280;40566;50.006;36.180;2023-05-23T17:47:29;99524.63;;;17.88;72.72
54666;BME280;40566;50.006;36.180;2023-05-23T17:52:30;99522.53;;;17.78;72.54
54666;BME280;40566;50.006;36.180;2023-05-23T17:57:31;99534.31;;;17.71;72.77
54666;BME280;40566;50.006;36.180;2023-05-23T18:02:32;99533.19;;;17.61;72.83
54666;BME280;40566;50.006;36.180;2023-05-23T18:07:33;99537.00;;;17.55;73.13
54666;BME280;40566;50.006;36.180;2023-05-23T18:12:33;99527.13;;;17.46;73.35
54666;BME280;40566;50.006;36.180;2023-05-23T18:17:34;99530.00;;;17.41;73.26
54666;BME280;40566;50.006;36.180;2023-05-23T18:22:35;99530.34;;;17.35;73.30
54666;BME280;40566;50.006;36.180;2023-05-23T18:27:36;99538.19;;;17.35;73.83
54666;BME280;40566;50.006;36.180;2023-05-23T18:32:36;99535.41;;;17.38;73.54
54666;BME280;40566;50.006;36.180;2023-05-23T18:37:37;99536.63;;;17.33;73.62
54666;BME280;40566;50.006;36.180;2023-05-23T18:42:38;99534.28;;;17.28;73.47
54666;BME280;40566;50.006;36.180;2023-05-23T18:47:38;99532.97;;;17.21;73.69
54666;BME280;40566;50.006;36.180;2023-05-23T18:52:39;99536.84;;;17.14;73.76
54666;BME280;40566;50.006;36.180;2023-05-23T18:57:40;99550.03;;;17.12;73.75
54666;BME280;40566;50.006;36.180;2023-05-23T19:02:41;99548.78;;;17.03;73.54
54666;BME280;40566;50.006;36.180;2023-05-23T19:07:44;99554.19;;;17.00;73.58
54666;BME280;40566;50.006;36.180;2023-05-23T19:12:44;99551.94;;;16.94;73.64
54666;BME280;40566;50.006;36.180;2023-05-23T19:17:45;99554.03;;;16.88;73.88
54666;BME280;40566;50.006;36.180;2023-05-23T19:22:47;99556.66;;;16.88;73.94
54666;BME280;40566;50.006;36.180;2023-05-23T19:27:48;99562.63;;;16.90;73.73
54666;BME280;40566;50.006;36.180;2023-05-23T19:32:56;99559.09;;;16.91;74.22
54666;BME280;40566;50.006;36.180;2023-05-23T19:38:00;99563.97;;;16.97;74.30
54666;BME280;40566;50.006;36.180;2023-05-23T19:43:01;99563.63;;;17.03;74.30
54666;BME280;40566;50.006;36.180;2023-05-23T19:48:01;99559.81;;;17.09;74.63
54666;BME280;40566;50.006;36.180;2023-05-23T19:53:02;99560.50;;;17.12;74.74
54666;BME280;40566;50.006;36.180;2023-05-23T19:58:04;99564.75;;;17.13;74.57
54666;BME280;40566;50.006;36.180;2023-05-23T20:03:04;99561.13;;;17.16;74.67
54666;BME280;40566;50.006;36.180;2023-05-23T20:08:06;99564.69;;;17.15;75.06
54666;BME280;40566;50.006;36.180;2023-05-23T20:13:07;99562.00;;;17.16;75.02
54666;BME280;40566;50.006;36.180;2023-05-23T20:18:08;99558.44;;;17.17;75.15
54666;BME280;40566;50.006;36.180;2023-05-23T20:23:08;99554.91;;;17.18;75.22
54666;BME280;40566;50.006;36.180;2023-05-23T20:28:09;99549.66;;;17.18;75.21
54666;BME280;40566;50.006;36.180;2023-05-23T20:33:09;99554.03;;;17.18;75.39
54666;BME280;40566;50.006;36.180;2023-05-23T20:38:10;99546.03;;;17.21;75.38
54666;BME280;40566;50.006;36.180;2023-05-23T20:43:11;99541.72;;;17.20;75.16
54666;BME280;40566;50.006;36.180;2023-05-23T20:48:11;99543.50;;;17.19;75.38
54666;BME280;40566;50.006;36.180;2023-05-23T20:53:12;99540.88;;;17.19;75.36
54666;BME280;40566;50.006;36.180;2023-05-23T20:58:12;99543.41;;;17.21;75.24
54666;BME280;40566;50.006;36.180;2023-05-23T21:03:13;99543.41;;;17.21;75.24
54666;BME280;40566;50.006;36.180;2023-05-23T21:08:14;99544.44;;;17.18;75.26
54666;BME280;40566;50.006;36.180;2023-05-23T21:13:14;99544.69;;;17.14;75.40
54666;BME280;40566;50.006;36.180;2023-05-23T21:18:15;99538.06;;;17.08;75.27
54666;BME280;40566;50.006;36.180;2023-05-23T21:23:15;99535.03;;;17.00;75.58
54666;BME280;40566;50.006;36.180;2023-05-23T21:28:16;99532.78;;;16.94;75.59
54666;BME280;40566;50.006;36.180;2023-05-23T21:33:17;99527.84;;;16.89;75.64
54666;BME280;40566;50.006;36.180;2023-05-23T21:38:17;99529.97;;;16.82;75.63
54666;BME280;40566;50.006;36.180;2023-05-23T21:43:18;99524.19;;;16.76;75.90
54666;BME280;40566;50.006;36.180;2023-05-23T21:48:18;99526.88;;;16.74;75.78
54666;BME280;40566;50.006;36.180;2023-05-23T21:53:19;99525.31;;;16.72;75.94
54666;BME280;40566;50.006;36.180;2023-05-23T21:58:19;99524.63;;;16.68;75.85
54666;BME280;40566;50.006;36.180;2023-05-23T22:03:20;99524.22;;;16.60;75.92
54666;BME280;40566;50.006;36.180;2023-05-23T22:08:21;99534.75;;;16.58;75.74
54666;BME280;40566;50.006;36.180;2023-05-23T22:13:21;99537.56;;;16.55;75.89
54666;BME280;40566;50.006;36.180;2023-05-23T22:18:22;99535.38;;;16.48;75.67
54666;BME280;40566;50.006;36.180;2023-05-23T22:23:25;99535.78;;;16.40;75.26
54666;BME280;40566;50.006;36.180;2023-05-23T22:28:26;99534.63;;;16.30;75.60
54666;BME280;40566;50.006;36.180;2023-05-23T22:33:26;99542.69;;;16.25;75.41
54666;BME280;40566;50.006;36.180;2023-05-23T22:38:27;99549.09;;;16.19;75.41
54666;BME280;40566;50.006;36.180;2023-05-23T22:43:28;99557.34;;;16.12;75.27
54666;BME280;40566;50.006;36.180;2023-05-23T22:48:29;99566.31;;;16.06;75.36
54666;BME280;40566;50.006;36.180;2023-05-23T22:53:32;99574.50;;;16.00;75.28
54666;BME280;40566;50.006;36.180;2023-05-23T22:58:33;99575.56;;;15.96;75.36
54666;BME280;40566;50.006;36.180;2023-05-23T23:03:34;99580.03;;;15.94;75.42
54666;BME280;40566;50.006;36.180;2023-05-23T23:08:35;99562.69;;;15.93;75.36
54666;BME280;40566;50.006;36.180;2023-05-23T23:13:36;99573.88;;;15.95;75.71
54666;BME280;40566;50.006;36.180;2023-05-23T23:18:37;99573.03;;;15.94;75.73
54666;BME280;40566;50.006;36.180;2023-05-23T23:23:38;99568.66;;;15.95;75.95
54666;BME280;40566;50.006;36.180;2023-05-23T23:28:38;99568.50;;;15.98;76.21
54666;BME280;40566;50.006;36.180;2023-05-23T23:33:39;99562.34;;;15.99;76.22
54666;BME280;40566;50.006;36.180;2023-05-23T23:38:39;99551.00;;;16.00;76.13
54666;BME280;40566;50.006;36.180;2023-05-23T23:43:40;99544.84;;;16.01;76.40
54666;BME280;40566;50.006;36.180;2023-05-23T23:48:41;99527.69;;;15.97;76.27
54666;BME280;40566;50.006;36.180;2023-05-23T23:53:41;99545.78;;;16.00;76.70
54666;BME280;40566;50.006;36.180;2023-05-23T23:58:42;99537.78;;;16.03;76.48
